sensor_id;sensor_type;location;lat;lon;timestamp;P1;durP1;ratioP1;P2;durP2;ratioP2
65613;SDS011;52283;49.292;10.572;2023-08-06T00:00:18;1.67;;;0.80;;
65613;SDS011;52283;49.292;10.572;2023-08-06T00:02:45;0.98;;;0.90;;
65613;SDS011;52283;49.292;10.572;2023-08-06T00:05:11;1.00;;;0.95;;
65613;SDS011;52283;49.292;10.572;2023-08-06T00:07:38;1.33;;;0.95;;
65613;SDS011;52283;49.292;10.572;2023-08-06T00:10:05;0.95;;;0.80;;
65613;SDS011;52283;49.292;10.572;2023-08-06T00:12:33;1.77;;;0.77;;
65613;SDS011;52283;49.292;10.572;2023-08-06T00:15:00;2.13;;;1.00;;
65613;SDS011;52283;49.292;10.572;2023-08-06T00:17:26;2.15;;;1.20;;
65613;SDS011;52283;49.292;10.572;2023-08-06T00:19:53;2.55;;;0.90;;
65613;SDS011;52283;49.292;10.572;2023-08-06T00:22:19;0.98;;;0.80;;
65613;SDS011;52283;49.292;10.572;2023-08-06T00:24:46;0.70;;;0.70;;
65613;SDS011;52283;49.292;10.572;2023-08-06T00:27:12;1.27;;;0.80;;
65613;SDS011;52283;49.292;10.572;2023-08-06T00:29:40;1.10;;;0.98;;
65613;SDS011;52283;49.292;10.572;2023-08-06T00:32:06;1.10;;;1.00;;
65613;SDS011;52283;49.292;10.572;2023-08-06T00:34:33;3.40;;;1.13;;
65613;SDS011;52283;49.292;10.572;2023-08-06T00:36:59;1.55;;;1.00;;
65613;SDS011;52283;49.292;10.572;2023-08-06T00:39:26;1.27;;;1.08;;
65613;SDS011;52283;49.292;10.572;2023-08-06T00:41:52;4.63;;;1.25;;
65613;SDS011;52283;49.292;10.572;2023-08-06T00:44:19;0.98;;;0.90;;
65613;SDS011;52283;49.292;10.572;2023-08-06T00:46:47;1.73;;;1.10;;
65613;SDS011;52283;49.292;10.572;2023-08-06T00:49:14;2.80;;;1.00;;
65613;SDS011;52283;49.292;10.572;2023-08-06T00:51:40;1.83;;;0.80;;
65613;SDS011;52283;49.292;10.572;2023-08-06T00:54:08;1.05;;;0.88;;
65613;SDS011;52283;49.292;10.572;2023-08-06T00:56:35;0.93;;;0.70;;
65613;SDS011;52283;49.292;10.572;2023-08-06T00:59:03;1.92;;;0.90;;
65613;SDS011;52283;49.292;10.572;2023-08-06T01:01:30;1.60;;;0.80;;
65613;SDS011;52283;49.292;10.572;2023-08-06T01:03:58;1.13;;;1.02;;
65613;SDS011;52283;49.292;10.572;2023-08-06T01:06:33;1.60;;;0.93;;
65613;SDS011;52283;49.292;10.572;2023-08-06T01:09:07;1.60;;;1.00;;
65613;SDS011;52283;49.292;10.572;2023-08-06T01:11:49;1.33;;;1.00;;
65613;SDS011;52283;49.292;10.572;2023-08-06T01:14:23;2.08;;;0.50;;
65613;SDS011;52283;49.292;10.572;2023-08-06T01:19:22;0.50;;;0.50;;
65613;SDS011;52283;49.292;10.572;2023-08-06T01:21:50;2.70;;;1.00;;
65613;SDS011;52283;49.292;10.572;2023-08-06T01:24:16;1.02;;;0.82;;
65613;SDS011;52283;49.292;10.572;2023-08-06T01:26:46;2.13;;;0.65;;
65613;SDS011;52283;49.292;10.572;2023-08-06T01:29:18;0.80;;;0.70;;
65613;SDS011;52283;49.292;10.572;2023-08-06T01:31:50;0.75;;;0.75;;
65613;SDS011;52283;49.292;10.572;2023-08-06T01:34:20;0.95;;;0.80;;
65613;SDS011;52283;49.292;10.572;2023-08-06T01:36:49;0.80;;;0.70;;
65613;SDS011;52283;49.292;10.572;2023-08-06T01:39:16;2.55;;;1.10;;
65613;SDS011;52283;49.292;10.572;2023-08-06T01:41:45;2.53;;;1.00;;
65613;SDS011;52283;49.292;10.572;2023-08-06T01:44:12;1.25;;;1.10;;
65613;SDS011;52283;49.292;10.572;2023-08-06T01:46:38;2.08;;;1.02;;
65613;SDS011;52283;49.292;10.572;2023-08-06T01:49:05;0.90;;;0.90;;
65613;SDS011;52283;49.292;10.572;2023-08-06T01:51:31;1.23;;;1.13;;
65613;SDS011;52283;49.292;10.572;2023-08-06T01:53:59;0.82;;;0.68;;
65613;SDS011;52283;49.292;10.572;2023-08-06T01:56:26;1.10;;;1.00;;
65613;SDS011;52283;49.292;10.572;2023-08-06T01:58:52;1.88;;;1.08;;
65613;SDS011;52283;49.292;10.572;2023-08-06T02:01:19;1.38;;;1.10;;
65613;SDS011;52283;49.292;10.572;2023-08-06T02:03:45;1.67;;;1.20;;
65613;SDS011;52283;49.292;10.572;2023-08-06T02:06:11;1.65;;;1.30;;
65613;SDS011;52283;49.292;10.572;2023-08-06T02:08:38;2.60;;;0.93;;
65613;SDS011;52283;49.292;10.572;2023-08-06T02:11:07;1.25;;;1.15;;
65613;SDS011;52283;49.292;10.572;2023-08-06T02:13:33;1.08;;;0.80;;
65613;SDS011;52283;49.292;10.572;2023-08-06T02:16:00;2.05;;;0.82;;
65613;SDS011;52283;49.292;10.572;2023-08-06T02:18:26;1.40;;;0.88;;
65613;SDS011;52283;49.292;10.572;2023-08-06T02:20:56;1.58;;;0.85;;
65613;SDS011;52283;49.292;10.572;2023-08-06T02:23:23;1.08;;;1.00;;
65613;SDS011;52283;49.292;10.572;2023-08-06T02:25:56;1.88;;;1.02;;
65613;SDS011;52283;49.292;10.572;2023-08-06T02:28:24;2.90;;;1.38;;
65613;SDS011;52283;49.292;10.572;2023-08-06T02:30:51;3.63;;;2.05;;
65613;SDS011;52283;49.292;10.572;2023-08-06T02:33:17;1.70;;;1.20;;
65613;SDS011;52283;49.292;10.572;2023-08-06T02:35:43;3.33;;;1.25;;
65613;SDS011;52283;49.292;10.572;2023-08-06T02:38:10;1.60;;;1.50;;
65613;SDS011;52283;49.292;10.572;2023-08-06T02:40:36;2.65;;;1.50;;
65613;SDS011;52283;49.292;10.572;2023-08-06T02:43:08;4.00;;;1.42;;
65613;SDS011;52283;49.292;10.572;2023-08-06T02:45:36;2.15;;;1.95;;
65613;SDS011;52283;49.292;10.572;2023-08-06T02:48:02;4.85;;;1.27;;
65613;SDS011;52283;49.292;10.572;2023-08-06T02:50:29;1.95;;;1.63;;
65613;SDS011;52283;49.292;10.572;2023-08-06T02:52:56;2.53;;;1.70;;
65613;SDS011;52283;49.292;10.572;2023-08-06T02:55:22;3.13;;;1.50;;
65613;SDS011;52283;49.292;10.572;2023-08-06T02:57:49;4.20;;;1.55;;
65613;SDS011;52283;49.292;10.572;2023-08-06T03:00:15;1.50;;;1.40;;
65613;SDS011;52283;49.292;10.572;2023-08-06T03:02:43;1.63;;;1.52;;
65613;SDS011;52283;49.292;10.572;2023-08-06T03:05:09;4.00;;;1.75;;
65613;SDS011;52283;49.292;10.572;2023-08-06T03:07:36;2.55;;;1.95;;
65613;SDS011;52283;49.292;10.572;2023-08-06T03:10:03;1.80;;;1.52;;
65613;SDS011;52283;49.292;10.572;2023-08-06T03:12:29;1.38;;;1.25;;
65613;SDS011;52283;49.292;10.572;2023-08-06T03:14:56;4.03;;;1.50;;
65613;SDS011;52283;49.292;10.572;2023-08-06T03:17:22;2.55;;;1.65;;
65613;SDS011;52283;49.292;10.572;2023-08-06T03:19:50;4.18;;;1.73;;
65613;SDS011;52283;49.292;10.572;2023-08-06T03:22:16;1.98;;;1.80;;
65613;SDS011;52283;49.292;10.572;2023-08-06T03:24:43;2.35;;;1.73;;
65613;SDS011;52283;49.292;10.572;2023-08-06T03:27:09;2.38;;;2.00;;
65613;SDS011;52283;49.292;10.572;2023-08-06T03:29:36;2.10;;;1.90;;
65613;SDS011;52283;49.292;10.572;2023-08-06T03:32:02;3.30;;;2.45;;
65613;SDS011;52283;49.292;10.572;2023-08-06T03:34:29;1.85;;;1.35;;
65613;SDS011;52283;49.292;10.572;2023-08-06T03:36:57;3.55;;;2.10;;
65613;SDS011;52283;49.292;10.572;2023-08-06T03:39:23;3.63;;;2.25;;
65613;SDS011;52283;49.292;10.572;2023-08-06T03:41:49;4.30;;;2.22;;
65613;SDS011;52283;49.292;10.572;2023-08-06T03:44:15;3.70;;;3.13;;
65613;SDS011;52283;49.292;10.572;2023-08-06T03:46:42;4.95;;;3.13;;
65613;SDS011;52283;49.292;10.572;2023-08-06T03:49:08;4.03;;;2.83;;
65613;SDS011;52283;49.292;10.572;2023-08-06T03:51:34;2.50;;;2.30;;
65613;SDS011;52283;49.292;10.572;2023-08-06T03:54:02;4.03;;;3.00;;
65613;SDS011;52283;49.292;10.572;2023-08-06T03:56:29;6.78;;;2.60;;
65613;SDS011;52283;49.292;10.572;2023-08-06T03:58:55;5.03;;;2.88;;
65613;SDS011;52283;49.292;10.572;2023-08-06T04:01:21;4.47;;;3.17;;
65613;SDS011;52283;49.292;10.572;2023-08-06T04:03:48;3.25;;;2.47;;
65613;SDS011;52283;49.292;10.572;2023-08-06T04:06:14;6.32;;;2.67;;
65613;SDS011;52283;49.292;10.572;2023-08-06T04:08:41;4.15;;;2.70;;
65613;SDS011;52283;49.292;10.572;2023-08-06T04:11:09;3.67;;;3.08;;
65613;SDS011;52283;49.292;10.572;2023-08-06T04:13:35;4.50;;;2.95;;
65613;SDS011;52283;49.292;10.572;2023-08-06T04:16:01;4.18;;;2.90;;
65613;SDS011;52283;49.292;10.572;2023-08-06T04:18:28;3.38;;;3.08;;
65613;SDS011;52283;49.292;10.572;2023-08-06T04:20:55;3.40;;;3.10;;
65613;SDS011;52283;49.292;10.572;2023-08-06T04:23:22;5.85;;;3.00;;
65613;SDS011;52283;49.292;10.572;2023-08-06T04:25:48;3.72;;;2.80;;
65613;SDS011;52283;49.292;10.572;2023-08-06T04:28:16;4.05;;;2.90;;
65613;SDS011;52283;49.292;10.572;2023-08-06T04:30:43;3.53;;;2.85;;
65613;SDS011;52283;49.292;10.572;2023-08-06T04:33:09;2.92;;;2.72;;
65613;SDS011;52283;49.292;10.572;2023-08-06T04:35:35;3.17;;;2.85;;
65613;SDS011;52283;49.292;10.572;2023-08-06T04:38:02;3.90;;;3.17;;
65613;SDS011;52283;49.292;10.572;2023-08-06T04:40:28;4.75;;;2.85;;
65613;SDS011;52283;49.292;10.572;2023-08-06T04:42:55;4.20;;;3.42;;
65613;SDS011;52283;49.292;10.572;2023-08-06T04:45:23;3.72;;;3.40;;
65613;SDS011;52283;49.292;10.572;2023-08-06T04:47:49;4.35;;;3.90;;
65613;SDS011;52283;49.292;10.572;2023-08-06T04:50:16;6.13;;;4.20;;
65613;SDS011;52283;49.292;10.572;2023-08-06T04:52:42;5.45;;;4.00;;
65613;SDS011;52283;49.292;10.572;2023-08-06T04:55:09;4.78;;;4.18;;
65613;SDS011;52283;49.292;10.572;2023-08-06T04:57:35;6.57;;;4.35;;
65613;SDS011;52283;49.292;10.572;2023-08-06T05:00:02;5.65;;;4.55;;
65613;SDS011;52283;49.292;10.572;2023-08-06T05:02:31;5.80;;;4.53;;
65613;SDS011;52283;49.292;10.572;2023-08-06T05:04:59;5.22;;;4.50;;
65613;SDS011;52283;49.292;10.572;2023-08-06T05:07:26;5.63;;;4.40;;
65613;SDS011;52283;49.292;10.572;2023-08-06T05:09:52;5.60;;;4.65;;
65613;SDS011;52283;49.292;10.572;2023-08-06T05:12:19;6.00;;;4.63;;
65613;SDS011;52283;49.292;10.572;2023-08-06T05:14:45;5.88;;;4.40;;
65613;SDS011;52283;49.292;10.572;2023-08-06T05:17:11;6.28;;;4.35;;
65613;SDS011;52283;49.292;10.572;2023-08-06T05:19:39;6.18;;;4.45;;
65613;SDS011;52283;49.292;10.572;2023-08-06T05:22:06;5.63;;;3.38;;
65613;SDS011;52283;49.292;10.572;2023-08-06T05:24:32;4.43;;;3.75;;
65613;SDS011;52283;49.292;10.572;2023-08-06T05:26:58;3.85;;;3.13;;
65613;SDS011;52283;49.292;10.572;2023-08-06T05:29:25;13.18;;;3.85;;
65613;SDS011;52283;49.292;10.572;2023-08-06T05:31:52;5.40;;;3.40;;
65613;SDS011;52283;49.292;10.572;2023-08-06T05:34:18;3.10;;;2.70;;
65613;SDS011;52283;49.292;10.572;2023-08-06T05:36:46;5.68;;;3.05;;
65613;SDS011;52283;49.292;10.572;2023-08-06T05:39:13;3.67;;;2.75;;
65613;SDS011;52283;49.292;10.572;2023-08-06T05:41:39;3.50;;;2.67;;
65613;SDS011;52283;49.292;10.572;2023-08-06T05:44:06;3.45;;;2.70;;
65613;SDS011;52283;49.292;10.572;2023-08-06T05:46:32;3.42;;;2.92;;
65613;SDS011;52283;49.292;10.572;2023-08-06T05:48:59;4.63;;;2.72;;
65613;SDS011;52283;49.292;10.572;2023-08-06T05:51:26;4.07;;;3.17;;
65613;SDS011;52283;49.292;10.572;2023-08-06T05:53:54;5.35;;;2.50;;
65613;SDS011;52283;49.292;10.572;2023-08-06T05:56:21;3.33;;;3.03;;
65613;SDS011;52283;49.292;10.572;2023-08-06T05:58:47;5.35;;;2.83;;
65613;SDS011;52283;49.292;10.572;2023-08-06T06:01:16;2.60;;;2.38;;
65613;SDS011;52283;49.292;10.572;2023-08-06T06:03:42;3.25;;;2.20;;
65613;SDS011;52283;49.292;10.572;2023-08-06T06:06:09;3.67;;;2.15;;
65613;SDS011;52283;49.292;10.572;2023-08-06T06:08:36;2.50;;;2.30;;
65613;SDS011;52283;49.292;10.572;2023-08-06T06:11:03;4.18;;;1.85;;
65613;SDS011;52283;49.292;10.572;2023-08-06T06:13:30;2.83;;;2.00;;
65613;SDS011;52283;49.292;10.572;2023-08-06T06:15:56;3.95;;;2.08;;
65613;SDS011;52283;49.292;10.572;2023-08-06T06:18:23;5.03;;;1.95;;
65613;SDS011;52283;49.292;10.572;2023-08-06T06:20:49;1.83;;;1.70;;
65613;SDS011;52283;49.292;10.572;2023-08-06T06:23:16;2.53;;;1.38;;
65613;SDS011;52283;49.292;10.572;2023-08-06T06:25:42;2.45;;;1.35;;
65613;SDS011;52283;49.292;10.572;2023-08-06T06:28:11;2.72;;;1.50;;
65613;SDS011;52283;49.292;10.572;2023-08-06T06:30:37;3.63;;;1.20;;
65613;SDS011;52283;49.292;10.572;2023-08-06T06:33:03;3.13;;;1.17;;
65613;SDS011;52283;49.292;10.572;2023-08-06T06:35:30;5.38;;;1.52;;
65613;SDS011;52283;49.292;10.572;2023-08-06T06:37:56;3.10;;;1.10;;
65613;SDS011;52283;49.292;10.572;2023-08-06T06:40:23;2.40;;;1.45;;
65613;SDS011;52283;49.292;10.572;2023-08-06T06:42:49;2.55;;;1.20;;
65613;SDS011;52283;49.292;10.572;2023-08-06T06:45:17;1.90;;;1.25;;
65613;SDS011;52283;49.292;10.572;2023-08-06T06:47:44;2.85;;;1.35;;
65613;SDS011;52283;49.292;10.572;2023-08-06T06:50:10;5.95;;;1.33;;
65613;SDS011;52283;49.292;10.572;2023-08-06T06:52:37;3.10;;;1.55;;
65613;SDS011;52283;49.292;10.572;2023-08-06T06:55:04;2.95;;;1.30;;
65613;SDS011;52283;49.292;10.572;2023-08-06T06:57:31;2.20;;;1.00;;
65613;SDS011;52283;49.292;10.572;2023-08-06T06:59:57;8.40;;;1.75;;
65613;SDS011;52283;49.292;10.572;2023-08-06T07:02:25;4.22;;;1.40;;
65613;SDS011;52283;49.292;10.572;2023-08-06T07:04:51;3.47;;;1.17;;
65613;SDS011;52283;49.292;10.572;2023-08-06T07:07:18;1.63;;;1.10;;
65613;SDS011;52283;49.292;10.572;2023-08-06T07:09:44;3.30;;;1.20;;
65613;SDS011;52283;49.292;10.572;2023-08-06T07:12:11;3.67;;;0.82;;
65613;SDS011;52283;49.292;10.572;2023-08-06T07:14:37;5.90;;;1.75;;
65613;SDS011;52283;49.292;10.572;2023-08-06T07:17:04;1.80;;;1.20;;
65613;SDS011;52283;49.292;10.572;2023-08-06T07:19:32;3.20;;;1.92;;
65613;SDS011;52283;49.292;10.572;2023-08-06T07:21:59;2.42;;;1.10;;
65613;SDS011;52283;49.292;10.572;2023-08-06T07:24:25;3.33;;;1.10;;
65613;SDS011;52283;49.292;10.572;2023-08-06T07:26:52;2.63;;;1.00;;
65613;SDS011;52283;49.292;10.572;2023-08-06T07:29:18;3.22;;;0.88;;
65613;SDS011;52283;49.292;10.572;2023-08-06T07:31:47;1.15;;;0.80;;
65613;SDS011;52283;49.292;10.572;2023-08-06T07:34:14;1.58;;;0.70;;
65613;SDS011;52283;49.292;10.572;2023-08-06T07:36:44;1.73;;;0.70;;
65613;SDS011;52283;49.292;10.572;2023-08-06T07:39:10;1.75;;;0.60;;
65613;SDS011;52283;49.292;10.572;2023-08-06T07:41:37;1.10;;;0.47;;
65613;SDS011;52283;49.292;10.572;2023-08-06T07:44:04;1.83;;;0.73;;
65613;SDS011;52283;49.292;10.572;2023-08-06T07:46:30;1.60;;;0.40;;
65613;SDS011;52283;49.292;10.572;2023-08-06T07:48:57;3.25;;;0.50;;
65613;SDS011;52283;49.292;10.572;2023-08-06T07:51:23;0.55;;;0.50;;
65613;SDS011;52283;49.292;10.572;2023-08-06T07:53:51;0.20;;;0.20;;
65613;SDS011;52283;49.292;10.572;2023-08-06T07:56:18;0.45;;;0.20;;
65613;SDS011;52283;49.292;10.572;2023-08-06T07:58:44;1.10;;;0.40;;
65613;SDS011;52283;49.292;10.572;2023-08-06T08:01:11;0.52;;;0.20;;
65613;SDS011;52283;49.292;10.572;2023-08-06T08:03:38;0.30;;;0.20;;
65613;SDS011;52283;49.292;10.572;2023-08-06T08:06:04;0.75;;;0.40;;
65613;SDS011;52283;49.292;10.572;2023-08-06T08:08:31;1.85;;;0.50;;
65613;SDS011;52283;49.292;10.572;2023-08-06T08:10:59;0.45;;;0.20;;
65613;SDS011;52283;49.292;10.572;2023-08-06T08:13:25;0.32;;;0.15;;
65613;SDS011;52283;49.292;10.572;2023-08-06T08:15:56;0.43;;;0.40;;
65613;SDS011;52283;49.292;10.572;2023-08-06T08:18:23;0.73;;;0.65;;
65613;SDS011;52283;49.292;10.572;2023-08-06T08:20:50;1.27;;;0.30;;
65613;SDS011;52283;49.292;10.572;2023-08-06T08:23:16;0.57;;;0.15;;
65613;SDS011;52283;49.292;10.572;2023-08-06T08:25:43;2.28;;;0.10;;
65613;SDS011;52283;49.292;10.572;2023-08-06T08:28:11;0.20;;;0.10;;
65613;SDS011;52283;49.292;10.572;2023-08-06T08:30:37;0.43;;;0.10;;
65613;SDS011;52283;49.292;10.572;2023-08-06T08:33:04;0.65;;;0.47;;
65613;SDS011;52283;49.292;10.572;2023-08-06T08:35:30;1.05;;;0.60;;
65613;SDS011;52283;49.292;10.572;2023-08-06T08:37:56;0.30;;;0.30;;
65613;SDS011;52283;49.292;10.572;2023-08-06T08:40:23;2.08;;;0.90;;
65613;SDS011;52283;49.292;10.572;2023-08-06T08:42:55;0.17;;;0.10;;
65613;SDS011;52283;49.292;10.572;2023-08-06T08:45:26;0.08;;;0.08;;
65613;SDS011;52283;49.292;10.572;2023-08-06T08:50:20;0.85;;;0.10;;
65613;SDS011;52283;49.292;10.572;2023-08-06T08:52:47;0.30;;;0.10;;
65613;SDS011;52283;49.292;10.572;2023-08-06T08:55:17;0.10;;;0.10;;
65613;SDS011;52283;49.292;10.572;2023-08-06T08:57:46;0.20;;;0.10;;
65613;SDS011;52283;49.292;10.572;2023-08-06T09:00:12;0.35;;;0.22;;
65613;SDS011;52283;49.292;10.572;2023-08-06T09:02:41;0.43;;;0.20;;
65613;SDS011;52283;49.292;10.572;2023-08-06T09:05:08;1.00;;;0.10;;
65613;SDS011;52283;49.292;10.572;2023-08-06T09:07:41;2.97;;;0.50;;
65613;SDS011;52283;49.292;10.572;2023-08-06T09:10:10;0.25;;;0.20;;
65613;SDS011;52283;49.292;10.572;2023-08-06T09:12:38;2.03;;;1.08;;
65613;SDS011;52283;49.292;10.572;2023-08-06T09:15:05;2.22;;;0.57;;
65613;SDS011;52283;49.292;10.572;2023-08-06T09:17:33;0.45;;;0.40;;
65613;SDS011;52283;49.292;10.572;2023-08-06T09:20:04;0.20;;;0.20;;
65613;SDS011;52283;49.292;10.572;2023-08-06T09:22:35;3.00;;;1.35;;
65613;SDS011;52283;49.292;10.572;2023-08-06T09:25:02;0.50;;;0.30;;
65613;SDS011;52283;49.292;10.572;2023-08-06T09:27:34;1.75;;;0.30;;
65613;SDS011;52283;49.292;10.572;2023-08-06T09:30:01;2.10;;;0.20;;
65613;SDS011;52283;49.292;10.572;2023-08-06T09:32:28;0.10;;;0.10;;
65613;SDS011;52283;49.292;10.572;2023-08-06T09:35:14;0.20;;;0.20;;
65613;SDS011;52283;49.292;10.572;2023-08-06T09:37:41;0.20;;;0.20;;
65613;SDS011;52283;49.292;10.572;2023-08-06T09:40:21;1.17;;;0.10;;
65613;SDS011;52283;49.292;10.572;2023-08-06T09:42:50;0.57;;;0.20;;
65613;SDS011;52283;49.292;10.572;2023-08-06T09:45:17;0.10;;;0.10;;
65613;SDS011;52283;49.292;10.572;2023-08-06T09:47:43;0.20;;;0.20;;
65613;SDS011;52283;49.292;10.572;2023-08-06T09:50:15;0.65;;;0.10;;
65613;SDS011;52283;49.292;10.572;2023-08-06T09:52:43;0.10;;;0.10;;
65613;SDS011;52283;49.292;10.572;2023-08-06T09:55:10;0.65;;;0.08;;
65613;SDS011;52283;49.292;10.572;2023-08-06T09:57:38;0.00;;;0.00;;
65613;SDS011;52283;49.292;10.572;2023-08-06T10:00:05;0.10;;;0.10;;
65613;SDS011;52283;49.292;10.572;2023-08-06T10:02:34;0.10;;;0.08;;
65613;SDS011;52283;49.292;10.572;2023-08-06T10:05:03;0.13;;;0.13;;
65613;SDS011;52283;49.292;10.572;2023-08-06T10:07:32;0.00;;;0.00;;
65613;SDS011;52283;49.292;10.572;2023-08-06T10:09:59;0.00;;;0.00;;
65613;SDS011;52283;49.292;10.572;2023-08-06T10:12:26;0.00;;;0.00;;
65613;SDS011;52283;49.292;10.572;2023-08-06T10:14:56;0.30;;;0.10;;
65613;SDS011;52283;49.292;10.572;2023-08-06T10:17:25;1.08;;;0.10;;
65613;SDS011;52283;49.292;10.572;2023-08-06T10:19:52;0.35;;;0.10;;
65613;SDS011;52283;49.292;10.572;2023-08-06T10:22:21;0.17;;;0.10;;
65613;SDS011;52283;49.292;10.572;2023-08-06T10:24:50;0.20;;;0.20;;
65613;SDS011;52283;49.292;10.572;2023-08-06T10:27:21;0.00;;;0.00;;
65613;SDS011;52283;49.292;10.572;2023-08-06T10:29:48;0.10;;;0.10;;
65613;SDS011;52283;49.292;10.572;2023-08-06T10:32:15;0.30;;;0.15;;
65613;SDS011;52283;49.292;10.572;2023-08-06T10:34:53;1.38;;;0.20;;
65613;SDS011;52283;49.292;10.572;2023-08-06T10:37:21;0.17;;;0.17;;
65613;SDS011;52283;49.292;10.572;2023-08-06T10:39:50;0.10;;;0.10;;
65613;SDS011;52283;49.292;10.572;2023-08-06T10:42:22;0.10;;;0.10;;
65613;SDS011;52283;49.292;10.572;2023-08-06T10:45:16;0.10;;;0.10;;
65613;SDS011;52283;49.292;10.572;2023-08-06T10:47:43;0.10;;;0.10;;
65613;SDS011;52283;49.292;10.572;2023-08-06T10:50:11;2.00;;;0.10;;
65613;SDS011;52283;49.292;10.572;2023-08-06T10:52:38;0.10;;;0.10;;
65613;SDS011;52283;49.292;10.572;2023-08-06T10:55:07;0.30;;;0.10;;
65613;SDS011;52283;49.292;10.572;2023-08-06T10:57:34;0.10;;;0.10;;
65613;SDS011;52283;49.292;10.572;2023-08-06T11:00:00;0.13;;;0.10;;
65613;SDS011;52283;49.292;10.572;2023-08-06T11:02:27;1.63;;;0.10;;
65613;SDS011;52283;49.292;10.572;2023-08-06T11:04:54;0.65;;;0.15;;
65613;SDS011;52283;49.292;10.572;2023-08-06T11:07:21;0.68;;;0.30;;
65613;SDS011;52283;49.292;10.572;2023-08-06T11:09:49;0.43;;;0.20;;
65613;SDS011;52283;49.292;10.572;2023-08-06T11:12:19;1.23;;;0.28;;
65613;SDS011;52283;49.292;10.572;2023-08-06T11:14:49;0.10;;;0.10;;
65613;SDS011;52283;49.292;10.572;2023-08-06T11:17:16;0.10;;;0.10;;
65613;SDS011;52283;49.292;10.572;2023-08-06T11:19:43;0.10;;;0.10;;
65613;SDS011;52283;49.292;10.572;2023-08-06T11:22:09;0.10;;;0.10;;
65613;SDS011;52283;49.292;10.572;2023-08-06T11:24:36;0.10;;;0.00;;
65613;SDS011;52283;49.292;10.572;2023-08-06T11:27:10;0.00;;;0.00;;
65613;SDS011;52283;49.292;10.572;2023-08-06T11:29:38;0.10;;;0.03;;
65613;SDS011;52283;49.292;10.572;2023-08-06T11:32:05;0.10;;;0.10;;
65613;SDS011;52283;49.292;10.572;2023-08-06T11:34:32;0.13;;;0.13;;
65613;SDS011;52283;49.292;10.572;2023-08-06T11:36:59;0.10;;;0.10;;
65613;SDS011;52283;49.292;10.572;2023-08-06T11:39:25;0.10;;;0.10;;
65613;SDS011;52283;49.292;10.572;2023-08-06T11:41:52;0.10;;;0.10;;
65613;SDS011;52283;49.292;10.572;2023-08-06T11:44:19;1.08;;;0.10;;
65613;SDS011;52283;49.292;10.572;2023-08-06T11:46:52;0.45;;;0.30;;
65613;SDS011;52283;49.292;10.572;2023-08-06T11:49:21;0.10;;;0.10;;
65613;SDS011;52283;49.292;10.572;2023-08-06T11:52:07;0.10;;;0.10;;
65613;SDS011;52283;49.292;10.572;2023-08-06T11:54:35;0.75;;;0.00;;
65613;SDS011;52283;49.292;10.572;2023-08-06T11:57:02;0.05;;;0.05;;
65613;SDS011;52283;49.292;10.572;2023-08-06T11:59:29;0.25;;;0.10;;
65613;SDS011;52283;49.292;10.572;2023-08-06T12:01:56;0.20;;;0.17;;
65613;SDS011;52283;49.292;10.572;2023-08-06T12:04:23;0.52;;;0.10;;
65613;SDS011;52283;49.292;10.572;2023-08-06T12:06:49;0.08;;;0.08;;
65613;SDS011;52283;49.292;10.572;2023-08-06T12:09:16;0.40;;;0.10;;
65613;SDS011;52283;49.292;10.572;2023-08-06T12:11:43;0.00;;;0.00;;
65613;SDS011;52283;49.292;10.572;2023-08-06T12:14:09;0.93;;;0.50;;
65613;SDS011;52283;49.292;10.572;2023-08-06T12:16:36;0.40;;;0.40;;
65613;SDS011;52283;49.292;10.572;2023-08-06T12:19:03;0.28;;;0.20;;
65613;SDS011;52283;49.292;10.572;2023-08-06T12:21:30;0.00;;;0.00;;
65613;SDS011;52283;49.292;10.572;2023-08-06T12:23:56;0.43;;;0.30;;
65613;SDS011;52283;49.292;10.572;2023-08-06T12:26:23;0.30;;;0.30;;
65613;SDS011;52283;49.292;10.572;2023-08-06T12:28:49;0.10;;;0.10;;
65613;SDS011;52283;49.292;10.572;2023-08-06T12:31:16;0.10;;;0.10;;
65613;SDS011;52283;49.292;10.572;2023-08-06T12:33:42;0.40;;;0.10;;
65613;SDS011;52283;49.292;10.572;2023-08-06T12:36:10;0.40;;;0.17;;
65613;SDS011;52283;49.292;10.572;2023-08-06T12:38:36;0.17;;;0.17;;
65613;SDS011;52283;49.292;10.572;2023-08-06T12:41:03;0.10;;;0.10;;
65613;SDS011;52283;49.292;10.572;2023-08-06T12:43:29;0.08;;;0.08;;
65613;SDS011;52283;49.292;10.572;2023-08-06T12:45:56;0.10;;;0.10;;
65613;SDS011;52283;49.292;10.572;2023-08-06T12:48:22;0.20;;;0.20;;
65613;SDS011;52283;49.292;10.572;2023-08-06T12:50:49;0.20;;;0.20;;
65613;SDS011;52283;49.292;10.572;2023-08-06T12:53:16;0.10;;;0.10;;
65613;SDS011;52283;49.292;10.572;2023-08-06T12:55:46;0.10;;;0.10;;
65613;SDS011;52283;49.292;10.572;2023-08-06T12:58:13;0.82;;;0.20;;
65613;SDS011;52283;49.292;10.572;2023-08-06T13:00:40;0.10;;;0.10;;
65613;SDS011;52283;49.292;10.572;2023-08-06T13:03:06;0.10;;;0.10;;
65613;SDS011;52283;49.292;10.572;2023-08-06T13:05:32;0.10;;;0.10;;
65613;SDS011;52283;49.292;10.572;2023-08-06T13:07:59;0.10;;;0.10;;
65613;SDS011;52283;49.292;10.572;2023-08-06T13:10:27;0.85;;;0.13;;
65613;SDS011;52283;49.292;10.572;2023-08-06T13:12:54;0.10;;;0.10;;
65613;SDS011;52283;49.292;10.572;2023-08-06T13:15:20;0.45;;;0.10;;
65613;SDS011;52283;49.292;10.572;2023-08-06T13:17:47;0.17;;;0.17;;
65613;SDS011;52283;49.292;10.572;2023-08-06T13:20:13;0.20;;;0.20;;
65613;SDS011;52283;49.292;10.572;2023-08-06T13:22:40;0.20;;;0.20;;
65613;SDS011;52283;49.292;10.572;2023-08-06T13:25:06;0.20;;;0.20;;
65613;SDS011;52283;49.292;10.572;2023-08-06T13:27:34;0.17;;;0.15;;
65613;SDS011;52283;49.292;10.572;2023-08-06T13:30:00;0.25;;;0.20;;
65613;SDS011;52283;49.292;10.572;2023-08-06T13:32:28;0.20;;;0.17;;
65613;SDS011;52283;49.292;10.572;2023-08-06T13:34:54;3.03;;;0.30;;
65613;SDS011;52283;49.292;10.572;2023-08-06T13:37:21;0.25;;;0.13;;
65613;SDS011;52283;49.292;10.572;2023-08-06T13:39:47;0.40;;;0.40;;
65613;SDS011;52283;49.292;10.572;2023-08-06T13:42:13;1.38;;;0.30;;
65613;SDS011;52283;49.292;10.572;2023-08-06T13:44:41;0.28;;;0.28;;
65613;SDS011;52283;49.292;10.572;2023-08-06T13:47:08;0.30;;;0.30;;
65613;SDS011;52283;49.292;10.572;2023-08-06T13:49:34;0.30;;;0.30;;
65613;SDS011;52283;49.292;10.572;2023-08-06T13:52:01;0.40;;;0.30;;
65613;SDS011;52283;49.292;10.572;2023-08-06T13:54:27;0.45;;;0.40;;
65613;SDS011;52283;49.292;10.572;2023-08-06T13:56:54;0.50;;;0.50;;
65613;SDS011;52283;49.292;10.572;2023-08-06T13:59:20;0.60;;;0.50;;
65613;SDS011;52283;49.292;10.572;2023-08-06T14:01:50;1.27;;;0.47;;
65613;SDS011;52283;49.292;10.572;2023-08-06T14:04:18;0.60;;;0.60;;
65613;SDS011;52283;49.292;10.572;2023-08-06T14:06:46;2.67;;;0.70;;
65613;SDS011;52283;49.292;10.572;2023-08-06T14:09:12;1.13;;;0.90;;
65613;SDS011;52283;49.292;10.572;2023-08-06T14:11:43;1.00;;;0.82;;
65613;SDS011;52283;49.292;10.572;2023-08-06T14:14:10;1.25;;;0.85;;
65613;SDS011;52283;49.292;10.572;2023-08-06T14:16:37;1.15;;;0.85;;
65613;SDS011;52283;49.292;10.572;2023-08-06T14:19:04;2.47;;;1.80;;
65613;SDS011;52283;49.292;10.572;2023-08-06T14:21:31;1.30;;;0.85;;
65613;SDS011;52283;49.292;10.572;2023-08-06T14:23:57;1.63;;;1.50;;
65613;SDS011;52283;49.292;10.572;2023-08-06T14:26:24;1.40;;;1.13;;
65613;SDS011;52283;49.292;10.572;2023-08-06T14:28:50;2.53;;;1.67;;
65613;SDS011;52283;49.292;10.572;2023-08-06T14:31:19;3.55;;;2.20;;
65613;SDS011;52283;49.292;10.572;2023-08-06T14:33:46;2.15;;;1.25;;
65613;SDS011;52283;49.292;10.572;2023-08-06T14:36:13;1.77;;;1.63;;
65613;SDS011;52283;49.292;10.572;2023-08-06T14:38:40;2.40;;;2.20;;